Terminal Aerodrome Forecast
Issued by NWS

Home | Current Version | Previous Version | Text Only | Print | Product List | Glossary On
Versions: 1 2 3 4 5 6 7 8 9 10 11 12 13 14 15 16 17 18
695
FTUS42 KTBW 060540
TAFPIE
TAF
KPIE 060540Z 0606/0706 03012KT P6SM SKC
     FM060800 03011KT P6SM FEW025 FEW040
     FM061500 03010KT P6SM SCT025 BKN035
     FM061700 03008KT P6SM SCT015 BKN025
     FM061900 01008KT P6SM VCSH SCT010 BKN020=

USA.gov is the U.S. government's official web portal to all federal, state and local government web resources and services.